AMS weather

Amsterdam Airport Schiphol
Amsterdam, Noord-Holland, Netherlands

Public forecast

Using degrees Celsius for public forecast. Weather courtesy of forecast.io.

METAR (pilot weather report)

Retrieved 2018/10/19 08:25 UTC (2 minutes ago):

EHAM 190825Z 06007KT 030V090 9999 FEW032 11/08 Q1026 NOSIG

TAF (pilot weather forecast)

Retrieved 2018/10/19 06:27 UTC (2 hours ago):

TAF TAF EHAM 190407Z 1906/2012 07005KT 9999 FEW030 BECMG 2001/2004 VRB02KT 7000 MIFG BECMG 2006/2009 20005KT 9999 NSW